Time;durP1;ratioP1;P1;durP2;ratioP2;P2;SDS_P1;SDS_P2;PMS_P1;PMS_P2;Temp;Humidity;BMP_temperature;BMP_pressure;BME280_temperature;BME280_humidity;BME280_pressure;Samples;Min_cycle;Max_cycle;Signal;HPM_P1;HPM_P2
2021/04/02 00:02:12;;;;;;;21.70;8.13;;;;;;;;;;5054253;28;20207;-75
2021/04/02 00:05:19;;;;;;;12.33;7.33;;;;;;;;;;5022648;28;20177;-75
2021/04/02 00:08:23;;;;;;;16.10;7.20;;;;;;;;;;5022868;28;20204;-74
2021/04/02 00:11:27;;;;;;;16.60;7.40;;;;;;;;;;5027851;28;20203;-74
2021/04/02 00:14:32;;;;;;;13.83;7.40;;;;;;;;;;5054572;28;20192;-75
2021/04/02 00:17:36;;;;;;;11.67;6.97;;;;;;;;;;5042234;28;20188;-75
2021/04/02 00:20:40;;;;;;;14.93;7.63;;;;;;;;;;5054682;28;20650;-76
2021/04/02 00:23:45;;;;;;;10.13;7.07;;;;;;;;;;5054058;28;20215;-75
2021/04/02 00:26:49;;;;;;;14.03;7.47;;;;;;;;;;5054308;28;20196;-75
2021/04/02 00:29:54;;;;;;;14.17;6.83;;;;;;;;;;5041904;28;20635;-76
2021/04/02 00:32:58;;;;;;;21.00;7.50;;;;;;;;;;5019042;28;20200;-75
2021/04/02 00:36:04;;;;;;;14.80;7.53;;;;;;;;;;5042008;28;20192;-76
2021/04/02 00:39:09;;;;;;;15.43;8.00;;;;;;;;;;5018847;28;20188;-75
2021/04/02 00:42:13;;;;;;;14.60;7.40;;;;;;;;;;5041281;28;20246;-75
2021/04/02 00:45:19;;;;;;;16.07;7.83;;;;;;;;;;5041933;28;20180;-76
2021/04/02 00:48:23;;;;;;;16.07;10.10;;;;;;;;;;5041582;28;20531;-75
2021/04/02 00:51:29;;;;;;;27.83;14.93;;;;;;;;;;5053894;28;20540;-76
2021/04/02 00:54:34;;;;;;;23.97;13.87;;;;;;;;;;5049109;28;20555;-75
2021/04/02 00:57:38;;;;;;;32.73;19.77;;;;;;;;;;5052646;28;20188;-75
2021/04/02 01:00:43;;;;;;;35.93;20.43;;;;;;;;;;5041453;28;20180;-76
2021/04/02 01:03:48;;;;;;;40.63;21.63;;;;;;;;;;5041207;28;20196;-76
2021/04/02 01:06:57;;;;;;;42.13;21.67;;;;;;;;;;5029934;28;20265;-76
2021/04/02 01:10:08;;;;;;;44.60;22.93;;;;;;;;;;5053761;28;20176;-76
2021/04/02 01:13:22;;;;;;;50.03;26.03;;;;;;;;;;5053405;28;20215;-76
2021/04/02 01:16:34;;;;;;;45.70;25.33;;;;;;;;;;5041115;28;20188;-76
2021/04/02 01:19:44;;;;;;;49.50;25.13;;;;;;;;;;5053381;28;20177;-76
2021/04/02 01:22:51;;;;;;;50.27;26.67;;;;;;;;;;5040097;28;20219;-76
2021/04/02 01:26:38;;;;;;;54.73;30.43;;;;;;;;;;5023087;28;20193;-75
2021/04/02 01:29:59;;;;;;;57.90;30.77;;;;;;;;;;5039875;28;20188;-75
2021/04/02 01:33:10;;;;;;;54.47;30.43;;;;;;;;;;5040436;28;20224;-76
2021/04/02 01:36:16;;;;;;;62.30;31.83;;;;;;;;;;5041196;28;20184;-76
2021/04/02 01:39:21;;;;;;;60.07;32.03;;;;;;;;;;5040576;28;20196;-75
2021/04/02 01:42:28;;;;;;;57.83;33.13;;;;;;;;;;5029536;28;20208;-76
2021/04/02 01:45:33;;;;;;;64.57;34.37;;;;;;;;;;5053319;28;20172;-76
2021/04/02 01:48:39;;;;;;;60.17;33.87;;;;;;;;;;5040210;28;20188;-75
2021/04/02 01:51:47;;;;;;;61.20;32.93;;;;;;;;;;5029634;28;20231;-75
2021/04/02 01:54:53;;;;;;;60.33;33.10;;;;;;;;;;5040917;28;20180;-76
2021/04/02 01:58:00;;;;;;;57.30;31.03;;;;;;;;;;5039943;28;20195;-75
2021/04/02 02:01:12;;;;;;;61.27;32.53;;;;;;;;;;5040652;28;20635;-75
2021/04/02 02:04:20;;;;;;;51.27;30.40;;;;;;;;;;5029123;28;20200;-76
2021/04/02 02:07:28;;;;;;;56.47;30.83;;;;;;;;;;5014471;28;20203;-75
2021/04/02 02:10:37;;;;;;;60.67;31.30;;;;;;;;;;5040653;28;20654;-76
2021/04/02 02:13:55;;;;;;;55.30;29.93;;;;;;;;;;5040154;28;20216;-76
2021/04/02 02:17:06;;;;;;;50.43;29.03;;;;;;;;;;5009291;28;20204;-76
2021/04/02 02:20:12;;;;;;;54.53;29.40;;;;;;;;;;5032438;28;20189;-75
2021/04/02 02:23:17;;;;;;;56.10;30.97;;;;;;;;;;5031867;28;20216;-76
2021/04/02 02:26:22;;;;;;;58.40;30.67;;;;;;;;;;5037350;28;20189;-75
2021/04/02 02:29:31;;;;;;;54.07;29.17;;;;;;;;;;5028717;28;20188;-76
2021/04/02 02:32:35;;;;;;;50.63;28.87;;;;;;;;;;5039956;28;20231;-75
2021/04/02 02:35:40;;;;;;;51.77;28.73;;;;;;;;;;5043265;28;20184;-76
2021/04/02 02:38:45;;;;;;;54.13;28.57;;;;;;;;;;5044143;28;20176;-76
2021/04/02 02:41:51;;;;;;;51.03;29.03;;;;;;;;;;5044124;28;20212;-76
2021/04/02 02:44:56;;;;;;;53.23;28.37;;;;;;;;;;5043927;28;20188;-75
2021/04/02 02:48:02;;;;;;;53.20;30.03;;;;;;;;;;5024606;28;20181;-76
2021/04/02 02:51:12;;;;;;;63.07;31.67;;;;;;;;;;5053653;28;20200;-75
2021/04/02 02:54:20;;;;;;;56.87;30.87;;;;;;;;;;5043817;28;20172;-75
2021/04/02 02:57:28;;;;;;;59.43;31.87;;;;;;;;;;5043863;28;20184;-76
2021/04/02 03:00:36;;;;;;;51.13;29.50;;;;;;;;;;5020902;28;20192;-75
2021/04/02 03:03:42;;;;;;;54.53;31.43;;;;;;;;;;5032270;28;20718;-76
2021/04/02 03:06:52;;;;;;;51.30;31.60;;;;;;;;;;5043316;28;20203;-75
2021/04/02 03:09:58;;;;;;;56.53;32.37;;;;;;;;;;5070736;22;20600;-74
2021/04/02 03:13:05;;;;;;;57.07;31.60;;;;;;;;;;5075491;28;20227;-74
2021/04/02 03:16:11;;;;;;;53.20;32.03;;;;;;;;;;5075032;28;20175;-74
2021/04/02 03:19:21;;;;;;;54.80;32.33;;;;;;;;;;5080648;28;20668;-73
2021/04/02 03:22:31;;;;;;;56.90;32.30;;;;;;;;;;5088597;28;20218;-74
2021/04/02 03:25:46;;;;;;;59.27;33.77;;;;;;;;;;5071423;28;20196;-74
2021/04/02 03:28:53;;;;;;;62.37;35.30;;;;;;;;;;5093894;28;20544;-74
2021/04/02 03:32:02;;;;;;;62.30;34.33;;;;;;;;;;5063209;28;20227;-74
2021/04/02 03:35:10;;;;;;;59.70;34.13;;;;;;;;;;5051644;28;20195;-74
2021/04/02 03:38:17;;;;;;;61.57;33.80;;;;;;;;;;5080939;28;20186;-74
2021/04/02 03:41:27;;;;;;;54.70;32.27;;;;;;;;;;5083212;28;20179;-74
2021/04/02 03:44:35;;;;;;;59.47;34.53;;;;;;;;;;5093221;28;20190;-74
2021/04/02 03:47:45;;;;;;;56.47;33.97;;;;;;;;;;5094500;28;20179;-74
2021/04/02 03:50:56;;;;;;;60.30;33.27;;;;;;;;;;5083441;28;20195;-74
2021/04/02 03:54:05;;;;;;;57.67;34.57;;;;;;;;;;5082114;28;20187;-74
2021/04/02 03:57:12;;;;;;;56.07;32.37;;;;;;;;;;5083084;28;20175;-74
2021/04/02 04:00:26;;;;;;;57.90;33.03;;;;;;;;;;5069485;28;20220;-74
2021/04/02 04:03:42;;;;;;;57.00;33.43;;;;;;;;;;5062279;28;20211;-74
2021/04/02 04:06:47;;;;;;;57.97;33.87;;;;;;;;;;5075159;28;20196;-74
2021/04/02 04:09:53;;;;;;;65.27;33.60;;;;;;;;;;5071150;28;20555;-74
2021/04/02 04:13:00;;;;;;;51.50;31.67;;;;;;;;;;5081318;28;20226;-74
2021/04/02 04:16:07;;;;;;;54.27;32.07;;;;;;;;;;5082067;28;20195;-74
2021/04/02 04:19:16;;;;;;;47.43;29.83;;;;;;;;;;5094589;28;20187;-74
2021/04/02 04:22:26;;;;;;;49.10;30.50;;;;;;;;;;5065147;28;20215;-74
2021/04/02 04:25:31;;;;;;;54.13;30.10;;;;;;;;;;5061910;28;20195;-75
2021/04/02 04:28:37;;;;;;;48.70;29.33;;;;;;;;;;5075900;28;20630;-74
2021/04/02 04:31:44;;;;;;;49.93;29.47;;;;;;;;;;5075198;28;20539;-74
2021/04/02 04:34:49;;;;;;;46.93;28.30;;;;;;;;;;5082020;28;20190;-74
2021/04/02 04:37:55;;;;;;;52.27;30.20;;;;;;;;;;5082022;28;20199;-75
2021/04/02 04:41:02;;;;;;;45.20;27.73;;;;;;;;;;5080906;28;20198;-74
2021/04/02 04:44:07;;;;;;;49.37;29.70;;;;;;;;;;5082100;28;20188;-74
2021/04/02 04:47:12;;;;;;;43.37;27.67;;;;;;;;;;5093979;28;20170;-75
2021/04/02 04:50:17;;;;;;;45.00;27.33;;;;;;;;;;5069117;28;20187;-74
2021/04/02 04:53:26;;;;;;;47.03;27.60;;;;;;;;;;5049651;28;20566;-74
2021/04/02 04:56:32;;;;;;;53.17;30.87;;;;;;;;;;5061417;28;20180;-74
2021/04/02 04:59:37;;;;;;;50.13;30.87;;;;;;;;;;5077488;28;20206;-74
2021/04/02 05:02:44;;;;;;;50.13;30.43;;;;;;;;;;5074509;28;20720;-74
2021/04/02 05:05:55;;;;;;;44.50;26.40;;;;;;;;;;5073632;28;20175;-74
2021/04/02 05:09:01;;;;;;;44.23;25.47;;;;;;;;;;5061518;28;20645;-75
2021/04/02 05:12:07;;;;;;;46.47;25.80;;;;;;;;;;5091130;28;20214;-74
2021/04/02 05:15:13;;;;;;;38.60;23.40;;;;;;;;;;5093815;28;20178;-74
2021/04/02 05:18:19;;;;;;;37.17;23.33;;;;;;;;;;5080693;28;20202;-75
2021/04/02 05:21:23;;;;;;;36.73;22.13;;;;;;;;;;5073556;28;20179;-74
2021/04/02 05:24:27;;;;;;;36.53;21.77;;;;;;;;;;5061066;28;20175;-75
2021/04/02 05:27:31;;;;;;;37.30;21.20;;;;;;;;;;5061093;28;20175;-74
2021/04/02 05:30:36;;;;;;;31.40;20.30;;;;;;;;;;5093047;28;20210;-74
2021/04/02 05:33:41;;;;;;;31.50;20.07;;;;;;;;;;5082086;28;20228;-74
2021/04/02 05:36:45;;;;;;;29.37;17.77;;;;;;;;;;5060762;28;20187;-74
2021/04/02 05:39:49;;;;;;;28.23;17.33;;;;;;;;;;5078247;28;20642;-74
2021/04/02 05:43:20;;;;;;;26.33;17.30;;;;;;;;;;5073296;28;20207;-74
2021/04/02 05:46:25;;;;;;;25.87;16.70;;;;;;;;;;5060857;28;20179;-74
2021/04/02 05:49:41;;;;;;;24.10;16.20;;;;;;;;;;5075481;28;20191;-74
2021/04/02 05:52:53;;;;;;;21.97;15.17;;;;;;;;;;5050365;28;20231;-74
2021/04/02 05:56:02;;;;;;;23.20;15.33;;;;;;;;;;5061602;28;20195;-74
2021/04/02 05:59:06;;;;;;;22.47;14.80;;;;;;;;;;5078471;28;20186;-74
2021/04/02 06:02:12;;;;;;;22.47;14.90;;;;;;;;;;5080685;28;20558;-74
2021/04/02 06:05:17;;;;;;;18.60;12.27;;;;;;;;;;5080245;28;20195;-74
2021/04/02 06:08:22;;;;;;;20.87;13.17;;;;;;;;;;5093201;28;20198;-74
2021/04/02 06:11:27;;;;;;;19.37;12.07;;;;;;;;;;5091607;28;20180;-74
2021/04/02 06:14:31;;;;;;;18.90;12.43;;;;;;;;;;5081531;28;20223;-74
2021/04/02 06:18:02;;;;;;;16.10;12.17;;;;;;;;;;5082533;28;20188;-74
2021/04/02 06:21:07;;;;;;;19.57;12.20;;;;;;;;;;5083156;28;20669;-74
2021/04/02 06:24:13;;;;;;;17.13;11.53;;;;;;;;;;5076609;28;20172;-74
2021/04/02 06:27:18;;;;;;;14.33;10.30;;;;;;;;;;5069261;28;20187;-74
2021/04/02 06:30:24;;;;;;;20.03;11.67;;;;;;;;;;5056785;28;20187;-74
2021/04/02 06:33:52;;;;;;;16.20;11.20;;;;;;;;;;5064037;28;20223;-74
2021/04/02 06:37:00;;;;;;;16.47;11.23;;;;;;;;;;5052542;28;20183;-74
2021/04/02 06:40:17;;;;;;;16.10;10.83;;;;;;;;;;5057413;28;20191;-75
2021/04/02 06:43:21;;;;;;;16.73;10.87;;;;;;;;;;5053597;28;20216;-75
2021/04/02 06:46:38;;;;;;;16.77;10.90;;;;;;;;;;5056116;28;20522;-75
2021/04/02 06:49:51;;;;;;;17.27;11.20;;;;;;;;;;5072595;28;20183;-74
2021/04/02 06:52:57;;;;;;;23.53;11.10;;;;;;;;;;5072431;28;20238;-74
2021/04/02 06:56:05;;;;;;;16.17;11.20;;;;;;;;;;5071821;28;20183;-75
2021/04/02 06:59:16;;;;;;;17.73;11.87;;;;;;;;;;5084013;28;20263;-75
2021/04/02 07:02:24;;;;;;;13.50;10.47;;;;;;;;;;5063804;28;20223;-75
2021/04/02 07:05:29;;;;;;;14.47;9.50;;;;;;;;;;5076483;28;20188;-75
2021/04/02 07:08:35;;;;;;;12.97;10.30;;;;;;;;;;5063581;28;20176;-75
2021/04/02 07:11:40;;;;;;;16.50;10.17;;;;;;;;;;5069922;28;20187;-75
2021/04/02 07:14:45;;;;;;;14.87;9.80;;;;;;;;;;5081181;28;20199;-74
2021/04/02 07:17:50;;;;;;;17.67;11.43;;;;;;;;;;5040323;28;20199;-75
2021/04/02 07:20:55;;;;;;;12.43;9.40;;;;;;;;;;5077875;28;20199;-75
2021/04/02 07:24:01;;;;;;;13.67;9.77;;;;;;;;;;5063336;28;20180;-75
2021/04/02 07:27:06;;;;;;;15.30;10.60;;;;;;;;;;5072195;28;20680;-75
2021/04/02 07:30:13;;;;;;;13.83;9.73;;;;;;;;;;5051756;28;20183;-75
2021/04/02 07:33:19;;;;;;;11.70;8.97;;;;;;;;;;5062421;28;20231;-75
2021/04/02 07:36:25;;;;;;;13.33;10.17;;;;;;;;;;5075740;28;20179;-75
2021/04/02 07:39:30;;;;;;;28.13;9.33;;;;;;;;;;5066360;28;20183;-74
2021/04/02 07:42:35;;;;;;;12.07;8.80;;;;;;;;;;5071913;28;20598;-74
2021/04/02 07:45:40;;;;;;;11.67;8.50;;;;;;;;;;5062965;28;20167;-74
2021/04/02 07:48:50;;;;;;;12.13;8.03;;;;;;;;;;5063463;28;20199;-74
2021/04/02 07:51:54;;;;;;;11.43;8.57;;;;;;;;;;5054822;28;20219;-75
2021/04/02 07:55:10;;;;;;;10.40;8.60;;;;;;;;;;5095228;28;20211;-75
2021/04/02 07:58:27;;;;;;;12.47;9.53;;;;;;;;;;5062285;28;20203;-75
2021/04/02 08:01:32;;;;;;;13.70;8.70;;;;;;;;;;5049991;28;20221;-75
2021/04/02 08:04:55;;;;;;;12.40;8.30;;;;;;;;;;5039750;28;20180;-74
2021/04/02 08:08:00;;;;;;;10.63;8.27;;;;;;;;;;5075903;28;20191;-74
2021/04/02 08:11:07;;;;;;;16.47;11.80;;;;;;;;;;5050976;28;20206;-75
2021/04/02 08:14:13;;;;;;;14.20;9.27;;;;;;;;;;5050428;28;20214;-75
2021/04/02 08:17:19;;;;;;;32.80;18.63;;;;;;;;;;5051920;28;20203;-74
2021/04/02 08:20:24;;;;;;;13.83;9.27;;;;;;;;;;5074391;28;20199;-74
2021/04/02 08:23:30;;;;;;;12.83;8.17;;;;;;;;;;5039431;28;20207;-74
2021/04/02 08:26:36;;;;;;;12.57;10.03;;;;;;;;;;5068766;28;20187;-75
2021/04/02 08:29:42;;;;;;;12.63;9.10;;;;;;;;;;5059561;28;20202;-76
2021/04/02 08:32:51;;;;;;;11.50;9.30;;;;;;;;;;5061184;28;20698;-72
2021/04/02 08:35:55;;;;;;;12.67;9.47;;;;;;;;;;5077638;28;20195;-72
2021/04/02 08:38:59;;;;;;;13.00;9.33;;;;;;;;;;5094114;28;20542;-73
2021/04/02 08:42:06;;;;;;;10.73;8.30;;;;;;;;;;5061004;28;20682;-72
2021/04/02 08:45:11;;;;;;;10.40;7.87;;;;;;;;;;5050425;28;20175;-73
2021/04/02 08:48:22;;;;;;;9.63;8.00;;;;;;;;;;5038903;28;20345;-73
2021/04/02 08:51:26;;;;;;;12.60;9.23;;;;;;;;;;5074187;28;20196;-73
2021/04/02 08:54:30;;;;;;;13.30;8.87;;;;;;;;;;5073962;28;20211;-72
2021/04/02 08:57:37;;;;;;;11.13;8.67;;;;;;;;;;5080494;28;20183;-73
2021/04/02 09:00:41;;;;;;;13.20;9.70;;;;;;;;;;5051163;28;20622;-73
2021/04/02 09:03:46;;;;;;;10.63;8.43;;;;;;;;;;5083995;28;20258;-73
2021/04/02 09:06:50;;;;;;;17.97;15.73;;;;;;;;;;5073401;28;20630;-73
2021/04/02 09:09:54;;;;;;;10.70;8.50;;;;;;;;;;5071350;28;20578;-72
2021/04/02 09:12:58;;;;;;;12.17;9.50;;;;;;;;;;5069393;22;20222;-70
2021/04/02 09:16:14;;;;;;;10.27;8.23;;;;;;;;;;5073124;28;20188;-69
2021/04/02 09:19:18;;;;;;;15.23;10.47;;;;;;;;;;5060911;28;20203;-69
2021/04/02 09:22:23;;;;;;;20.73;12.70;;;;;;;;;;5060487;28;20589;-69
2021/04/02 09:25:27;;;;;;;16.33;9.50;;;;;;;;;;5072417;28;20214;-72
2021/04/02 09:28:35;;;;;;;17.07;9.63;;;;;;;;;;5062395;28;20191;-72
2021/04/02 09:31:44;;;;;;;13.43;9.60;;;;;;;;;;5053008;28;20654;-72
2021/04/02 09:34:48;;;;;;;18.33;11.33;;;;;;;;;;5057588;28;20207;-72
2021/04/02 09:37:53;;;;;;;13.83;9.90;;;;;;;;;;5065435;28;20202;-72
2021/04/02 09:40:59;;;;;;;15.13;9.27;;;;;;;;;;5072534;28;20539;-72
2021/04/02 09:44:13;;;;;;;8.70;7.80;;;;;;;;;;5069296;28;20187;-72
2021/04/02 09:47:17;;;;;;;14.20;8.17;;;;;;;;;;5064102;28;20554;-73
2021/04/02 09:50:22;;;;;;;10.17;8.37;;;;;;;;;;5073168;28;20626;-72
2021/04/02 09:53:26;;;;;;;12.50;8.23;;;;;;;;;;5056780;28;20215;-72
2021/04/02 09:56:31;;;;;;;11.40;9.63;;;;;;;;;;5059912;28;20188;-72
2021/04/02 09:59:36;;;;;;;11.47;9.87;;;;;;;;;;5072465;28;20650;-72
2021/04/02 10:02:40;;;;;;;159.67;101.40;;;;;;;;;;5071395;28;20716;-72
2021/04/02 10:05:45;;;;;;;28.50;17.07;;;;;;;;;;5072361;28;20277;-72
2021/04/02 10:08:49;;;;;;;13.53;9.53;;;;;;;;;;5072999;28;20549;-72
2021/04/02 10:11:53;;;;;;;12.37;9.10;;;;;;;;;;5073297;28;20219;-72
2021/04/02 10:14:57;;;;;;;10.60;8.80;;;;;;;;;;5049505;28;20211;-72
2021/04/02 10:18:02;;;;;;;27.37;15.70;;;;;;;;;;5072680;28;20515;-72
2021/04/02 10:21:07;;;;;;;18.33;12.17;;;;;;;;;;5072518;28;20199;-72
2021/04/02 10:24:12;;;;;;;335.33;267.83;;;;;;;;;;5072296;28;20219;-72
2021/04/02 10:27:16;;;;;;;18.57;12.23;;;;;;;;;;5042540;28;20597;-72
2021/04/02 10:30:21;;;;;;;10.97;9.63;;;;;;;;;;5060110;28;20194;-72
2021/04/02 10:33:26;;;;;;;32.77;22.63;;;;;;;;;;5072067;28;20215;-72
2021/04/02 10:36:30;;;;;;;10.97;8.80;;;;;;;;;;5072261;28;20183;-72
2021/04/02 10:39:35;;;;;;;15.57;10.57;;;;;;;;;;5072652;28;20214;-72
2021/04/02 10:42:39;;;;;;;37.57;25.30;;;;;;;;;;5072387;28;20226;-72
2021/04/02 10:45:43;;;;;;;16.07;12.60;;;;;;;;;;5072719;28;20690;-71
2021/04/02 10:48:48;;;;;;;19.83;14.27;;;;;;;;;;5072816;28;20262;-72
2021/04/02 10:51:52;;;;;;;9.77;7.93;;;;;;;;;;5071952;28;20222;-72
2021/04/02 10:54:56;;;;;;;11.50;8.47;;;;;;;;;;5059728;28;20211;-73
2021/04/02 10:58:00;;;;;;;7.93;7.10;;;;;;;;;;5075713;28;20192;-72
2021/04/02 11:01:05;;;;;;;8.40;7.50;;;;;;;;;;5063770;28;20176;-72
2021/04/02 11:04:09;;;;;;;8.90;7.73;;;;;;;;;;5070385;28;20195;-72
2021/04/02 11:07:13;;;;;;;8.77;7.03;;;;;;;;;;5075697;28;20175;-72
2021/04/02 11:10:18;;;;;;;10.20;7.93;;;;;;;;;;5051676;28;20196;-72
2021/04/02 11:13:22;;;;;;;9.90;8.40;;;;;;;;;;5069924;28;20231;-73
2021/04/02 11:16:26;;;;;;;16.90;7.67;;;;;;;;;;5056183;28;20184;-72
2021/04/02 11:19:31;;;;;;;9.50;7.90;;;;;;;;;;5075102;28;20191;-72
2021/04/02 11:22:37;;;;;;;9.03;7.93;;;;;;;;;;5075158;28;20570;-72
2021/04/02 11:25:41;;;;;;;8.83;7.07;;;;;;;;;;5062906;28;20191;-72
2021/04/02 11:28:45;;;;;;;7.67;6.70;;;;;;;;;;5062847;28;20203;-72
2021/04/02 11:31:49;;;;;;;10.53;6.67;;;;;;;;;;5074504;28;20226;-72
2021/04/02 11:34:54;;;;;;;8.83;7.10;;;;;;;;;;5043022;28;20803;-72
2021/04/02 11:37:59;;;;;;;7.20;6.00;;;;;;;;;;5062979;28;20546;-72
2021/04/02 11:41:04;;;;;;;9.67;6.40;;;;;;;;;;5055025;28;20184;-72
2021/04/02 11:44:08;;;;;;;9.17;6.27;;;;;;;;;;5054882;28;20188;-72
2021/04/02 11:47:12;;;;;;;6.73;5.67;;;;;;;;;;5066748;28;20531;-72
2021/04/02 11:50:16;;;;;;;8.40;6.40;;;;;;;;;;5074649;28;20207;-72
2021/04/02 11:53:20;;;;;;;7.47;6.03;;;;;;;;;;5074996;28;20219;-73
2021/04/02 11:56:24;;;;;;;8.60;6.33;;;;;;;;;;5074554;28;20214;-72
2021/04/02 11:59:28;;;;;;;9.47;6.03;;;;;;;;;;5074721;28;20191;-72
2021/04/02 12:02:33;;;;;;;9.17;6.20;;;;;;;;;;5054702;28;20215;-72
2021/04/02 12:05:37;;;;;;;10.33;7.10;;;;;;;;;;5073300;28;20191;-72
2021/04/02 12:08:42;;;;;;;8.97;7.37;;;;;;;;;;5073969;28;20199;-73
2021/04/02 12:11:46;;;;;;;9.83;6.80;;;;;;;;;;5074196;28;20705;-72
2021/04/02 12:14:50;;;;;;;11.10;6.33;;;;;;;;;;5061832;28;20693;-73
2021/04/02 12:17:54;;;;;;;11.90;5.73;;;;;;;;;;5062454;28;20206;-72
2021/04/02 12:20:59;;;;;;;7.63;5.67;;;;;;;;;;5050353;28;20183;-73
2021/04/02 12:24:03;;;;;;;7.77;6.37;;;;;;;;;;5074741;28;20179;-73
2021/04/02 12:27:08;;;;;;;8.73;6.47;;;;;;;;;;5074383;28;20184;-72
2021/04/02 12:30:15;;;;;;;9.43;6.33;;;;;;;;;;5061571;28;20192;-72
2021/04/02 12:33:19;;;;;;;9.23;7.03;;;;;;;;;;5050415;28;20211;-72
2021/04/02 12:36:23;;;;;;;9.17;7.10;;;;;;;;;;5074108;28;20215;-73
2021/04/02 12:39:27;;;;;;;9.17;6.43;;;;;;;;;;5074353;28;20175;-73
2021/04/02 12:42:31;;;;;;;16.67;6.70;;;;;;;;;;5054105;28;20216;-73
2021/04/02 12:45:36;;;;;;;9.20;6.37;;;;;;;;;;5056060;28;20180;-72
2021/04/02 12:48:40;;;;;;;9.93;6.00;;;;;;;;;;5073734;28;20637;-73
2021/04/02 12:51:45;;;;;;;6.17;5.00;;;;;;;;;;5073869;28;20175;-72
2021/04/02 12:54:49;;;;;;;7.33;5.10;;;;;;;;;;5073847;28;20191;-72
2021/04/02 12:57:54;;;;;;;6.97;4.80;;;;;;;;;;5073354;28;20183;-73
2021/04/02 13:00:58;;;;;;;5.10;4.60;;;;;;;;;;5073877;28;20179;-73
2021/04/02 13:04:03;;;;;;;6.03;4.77;;;;;;;;;;5049835;28;20187;-72
2021/04/02 13:07:08;;;;;;;6.87;4.73;;;;;;;;;;5065536;28;20527;-73
2021/04/02 13:10:13;;;;;;;5.73;4.73;;;;;;;;;;5060711;28;20176;-72
2021/04/02 13:13:19;;;;;;;5.80;5.00;;;;;;;;;;5060631;28;20226;-72
2021/04/02 13:16:23;;;;;;;7.20;4.67;;;;;;;;;;5072934;28;20688;-72
2021/04/02 13:19:27;;;;;;;5.80;4.50;;;;;;;;;;5040471;28;20207;-72
2021/04/02 13:22:32;;;;;;;6.33;4.83;;;;;;;;;;5066548;28;20218;-72
2021/04/02 13:25:36;;;;;;;6.40;4.60;;;;;;;;;;5073155;28;20191;-73
2021/04/02 13:28:41;;;;;;;7.40;4.50;;;;;;;;;;5073135;28;20195;-73
2021/04/02 13:31:45;;;;;;;5.20;4.63;;;;;;;;;;5073223;28;20219;-73
2021/04/02 13:34:53;;;;;;;4.43;4.03;;;;;;;;;;5072841;28;20187;-72
2021/04/02 13:37:59;;;;;;;6.07;4.27;;;;;;;;;;5073418;28;20179;-73
2021/04/02 13:41:04;;;;;;;5.43;4.23;;;;;;;;;;5073032;28;20187;-73
2021/04/02 13:44:09;;;;;;;6.57;5.87;;;;;;;;;;5072956;28;20203;-73
2021/04/02 13:47:13;;;;;;;5.97;4.63;;;;;;;;;;5072708;28;20191;-73
2021/04/02 13:50:24;;;;;;;6.23;5.63;;;;;;;;;;5062178;28;20195;-73
2021/04/02 13:53:28;;;;;;;10.97;5.00;;;;;;;;;;5060778;28;20215;-73
2021/04/02 13:56:32;;;;;;;6.87;4.80;;;;;;;;;;5072786;28;20566;-72
2021/04/02 13:59:37;;;;;;;8.27;5.80;;;;;;;;;;5072799;28;20195;-72
2021/04/02 14:02:43;;;;;;;8.00;5.17;;;;;;;;;;5058848;28;20231;-73
2021/04/02 14:05:47;;;;;;;11.03;8.63;;;;;;;;;;5073218;28;20171;-73
2021/04/02 14:08:51;;;;;;;8.93;4.23;;;;;;;;;;5056620;28;20199;-73
2021/04/02 14:11:55;;;;;;;6.80;5.23;;;;;;;;;;5058811;28;20226;-73
2021/04/02 14:15:00;;;;;;;5.23;4.70;;;;;;;;;;5049384;28;20179;-74
2021/04/02 14:18:05;;;;;;;11.07;4.40;;;;;;;;;;5073971;28;20185;-74
2021/04/02 14:21:09;;;;;;;7.67;4.50;;;;;;;;;;5029817;28;20189;-73
2021/04/02 14:24:13;;;;;;;5.13;3.80;;;;;;;;;;5053448;28;20180;-73
2021/04/02 14:27:20;;;;;;;6.57;4.47;;;;;;;;;;5052943;28;20168;-74
2021/04/02 14:30:26;;;;;;;10.30;4.53;;;;;;;;;;5069976;28;20191;-72
2021/04/02 14:33:31;;;;;;;5.17;4.67;;;;;;;;;;5076365;28;20580;-73
2021/04/02 14:36:35;;;;;;;4.83;3.73;;;;;;;;;;5076097;28;20215;-72
2021/04/02 14:39:39;;;;;;;5.07;4.13;;;;;;;;;;5076242;28;20191;-73
2021/04/02 14:42:44;;;;;;;3.90;3.17;;;;;;;;;;5076215;28;20219;-72
2021/04/02 14:45:48;;;;;;;4.43;3.63;;;;;;;;;;5063012;28;20175;-73
2021/04/02 14:48:52;;;;;;;4.77;3.73;;;;;;;;;;5061643;28;20188;-72
2021/04/02 14:51:57;;;;;;;6.20;4.10;;;;;;;;;;5044012;28;20689;-73
2021/04/02 14:55:02;;;;;;;7.37;3.60;;;;;;;;;;5056338;28;20188;-73
2021/04/02 14:58:07;;;;;;;11.97;3.87;;;;;;;;;;5032544;28;20176;-73
2021/04/02 15:01:11;;;;;;;4.43;3.90;;;;;;;;;;5075663;28;20187;-72
2021/04/02 15:04:17;;;;;;;5.87;4.57;;;;;;;;;;5076469;28;20621;-73
2021/04/02 15:07:21;;;;;;;7.23;3.90;;;;;;;;;;5075891;28;20180;-73
2021/04/02 15:10:25;;;;;;;24.80;17.70;;;;;;;;;;5076347;28;20179;-72
2021/04/02 15:13:29;;;;;;;10.17;7.87;;;;;;;;;;5075983;28;20242;-73
2021/04/02 15:16:34;;;;;;;6.93;5.83;;;;;;;;;;5089505;22;20235;-72
2021/04/02 15:19:38;;;;;;;11.60;6.43;;;;;;;;;;5056034;28;20180;-72
2021/04/02 15:22:44;;;;;;;6.90;5.53;;;;;;;;;;5055821;28;20239;-72
2021/04/02 15:25:48;;;;;;;7.17;6.03;;;;;;;;;;5055585;28;20225;-72
2021/04/02 15:28:53;;;;;;;6.57;5.83;;;;;;;;;;5074502;28;20203;-73
2021/04/02 15:31:57;;;;;;;8.17;6.20;;;;;;;;;;5075891;28;20223;-73
2021/04/02 15:35:02;;;;;;;6.60;5.83;;;;;;;;;;5063478;28;20183;-73
2021/04/02 15:38:07;;;;;;;11.93;6.47;;;;;;;;;;5075961;28;20179;-73
2021/04/02 15:41:11;;;;;;;6.13;5.20;;;;;;;;;;5075362;28;20523;-73
2021/04/02 15:44:15;;;;;;;8.40;5.50;;;;;;;;;;5074993;28;20180;-73
2021/04/02 15:47:20;;;;;;;5.80;5.20;;;;;;;;;;5075478;28;20630;-74
2021/04/02 15:50:25;;;;;;;14.37;6.37;;;;;;;;;;5075163;28;20179;-75
2021/04/02 15:53:30;;;;;;;6.53;4.97;;;;;;;;;;5074421;28;20215;-75
2021/04/02 15:56:34;;;;;;;5.60;4.10;;;;;;;;;;5063005;28;20691;-73
2021/04/02 15:59:39;;;;;;;5.03;3.93;;;;;;;;;;5075666;28;20508;-72
2021/04/02 16:02:45;;;;;;;4.97;3.90;;;;;;;;;;5075031;28;20594;-72
2021/04/02 16:05:49;;;;;;;7.30;3.57;;;;;;;;;;5075273;28;20172;-73
2021/04/02 16:08:53;;;;;;;6.60;3.90;;;;;;;;;;5074239;28;20180;-73
2021/04/02 16:11:58;;;;;;;4.60;3.40;;;;;;;;;;5074073;28;20555;-73
2021/04/02 16:15:02;;;;;;;5.13;3.53;;;;;;;;;;5074949;28;20175;-73
2021/04/02 16:18:06;;;;;;;5.10;3.33;;;;;;;;;;5073060;28;20180;-73
2021/04/02 16:21:10;;;;;;;7.10;3.83;;;;;;;;;;5074592;28;20191;-72
2021/04/02 16:24:15;;;;;;;4.03;3.00;;;;;;;;;;5062507;28;20531;-74
2021/04/02 16:27:22;;;;;;;3.67;3.13;;;;;;;;;;5074308;28;20638;-74
2021/04/02 16:30:26;;;;;;;3.70;2.67;;;;;;;;;;5051989;28;20646;-75
2021/04/02 16:33:30;;;;;;;2.90;2.37;;;;;;;;;;5061967;28;20211;-74
2021/04/02 16:36:36;;;;;;;3.17;2.17;;;;;;;;;;5073889;28;20207;-73
2021/04/02 16:39:40;;;;;;;3.90;2.50;;;;;;;;;;5072286;28;20534;-74
2021/04/02 16:42:45;;;;;;;2.77;2.10;;;;;;;;;;5074208;28;20578;-73
2021/04/02 16:45:49;;;;;;;6.67;2.00;;;;;;;;;;5073850;28;20191;-74
2021/04/02 16:48:53;;;;;;;25.40;19.50;;;;;;;;;;5061080;28;20195;-73
2021/04/02 16:51:57;;;;;;;22.17;11.80;;;;;;;;;;5061643;28;20230;-74
2021/04/02 16:55:03;;;;;;;19.30;10.87;;;;;;;;;;5061096;28;20206;-74
2021/04/02 16:58:07;;;;;;;9.13;7.70;;;;;;;;;;5073678;28;20210;-74
2021/04/02 17:01:11;;;;;;;4.20;2.40;;;;;;;;;;5041768;28;20192;-74
2021/04/02 17:04:15;;;;;;;2.90;2.20;;;;;;;;;;5053917;28;20184;-74
2021/04/02 17:07:19;;;;;;;3.03;2.57;;;;;;;;;;5057681;28;20191;-74
2021/04/02 17:10:23;;;;;;;3.83;2.57;;;;;;;;;;5060407;28;20199;-74
2021/04/02 17:13:28;;;;;;;4.60;2.90;;;;;;;;;;5073147;28;20685;-74
2021/04/02 17:16:33;;;;;;;3.43;2.70;;;;;;;;;;5072825;28;20681;-74
2021/04/02 17:19:37;;;;;;;2.33;2.13;;;;;;;;;;5072729;28;20666;-74
2021/04/02 17:22:42;;;;;;;3.23;2.83;;;;;;;;;;5073194;28;20214;-74
2021/04/02 17:25:46;;;;;;;7.70;4.83;;;;;;;;;;5067796;28;20196;-75
2021/04/02 17:28:50;;;;;;;6.67;4.83;;;;;;;;;;5057353;28;20195;-75
2021/04/02 17:31:55;;;;;;;5.20;3.90;;;;;;;;;;5060846;28;20210;-74
2021/04/02 17:34:59;;;;;;;5.47;3.53;;;;;;;;;;5061026;28;20184;-74
2021/04/02 17:38:03;;;;;;;2.97;2.67;;;;;;;;;;5073058;28;20199;-75
2021/04/02 17:41:08;;;;;;;6.73;4.23;;;;;;;;;;5053337;28;20180;-75
2021/04/02 17:44:12;;;;;;;12.07;7.10;;;;;;;;;;5052318;28;20184;-75
2021/04/02 17:47:17;;;;;;;6.87;4.67;;;;;;;;;;5050540;28;20184;-73
2021/04/02 17:50:22;;;;;;;3.67;2.40;;;;;;;;;;5055359;28;20183;-74
2021/04/02 17:53:27;;;;;;;2.57;2.17;;;;;;;;;;5072450;28;20219;-74
2021/04/02 17:56:31;;;;;;;4.63;3.33;;;;;;;;;;5072687;28;20638;-75
2021/04/02 17:59:36;;;;;;;4.47;3.53;;;;;;;;;;5073410;28;20557;-74
2021/04/02 18:02:40;;;;;;;6.07;2.93;;;;;;;;;;5072584;28;20227;-74
2021/04/02 18:05:45;;;;;;;4.70;2.60;;;;;;;;;;5062139;28;20179;-74
2021/04/02 18:08:49;;;;;;;4.30;2.73;;;;;;;;;;5064509;28;20184;-75
2021/04/02 18:11:54;;;;;;;4.43;3.03;;;;;;;;;;5064574;28;20219;-75
2021/04/02 18:14:59;;;;;;;6.50;3.33;;;;;;;;;;5076004;28;20193;-75
2021/04/02 18:18:03;;;;;;;3.43;2.80;;;;;;;;;;5062406;28;20203;-75